createdAt,value
2018-12-25T00:00:47.828Z,7.97
2018-12-25T00:03:21.571Z,10.40
2018-12-25T00:05:56.456Z,7.97
2018-12-25T00:08:30.269Z,8.67
2018-12-25T00:11:04.349Z,9.87
2018-12-25T00:13:38.149Z,8.53
2018-12-25T00:18:54.976Z,12.07
2018-12-25T00:21:28.768Z,9.77
2018-12-25T00:24:03.232Z,10.73
2018-12-25T00:26:37.041Z,11.13
2018-12-25T00:31:50.588Z,11.50
2018-12-25T00:34:24.350Z,10.10
2018-12-25T00:36:59.173Z,12.17
2018-12-25T00:42:17.960Z,10.20
2018-12-25T00:44:51.805Z,11.13
2018-12-25T00:47:25.578Z,10.50
2018-12-25T00:50:00.147Z,10.37
2018-12-25T00:52:33.924Z,10.90
2018-12-25T00:55:07.684Z,12.13
2018-12-25T00:57:41.504Z,9.87
2018-12-25T01:00:15.248Z,12.07
2018-12-25T01:02:49.042Z,11.10
2018-12-25T01:05:22.768Z,15.03
2018-12-25T01:07:56.842Z,12.13
2018-12-25T01:10:31.367Z,11.17
2018-12-25T01:13:05.929Z,10.17
2018-12-25T01:15:39.726Z,10.20
2018-12-25T01:18:13.480Z,12.73
2018-12-25T01:20:47.249Z,10.53
2018-12-25T01:23:21.050Z,11.23
2018-12-25T01:25:54.795Z,12.80
2018-12-25T01:28:28.586Z,11.63
2018-12-25T01:31:02.369Z,11.47
2018-12-25T01:33:36.433Z,11.03
2018-12-25T01:36:10.218Z,11.10
2018-12-25T01:38:44.017Z,12.40
2018-12-25T01:41:18.331Z,11.97
2018-12-25T01:43:52.274Z,11.70
2018-12-25T01:46:26.261Z,10.57
2018-12-25T01:48:59.996Z,12.43
2018-12-25T01:51:34.560Z,11.90
2018-12-25T01:54:08.316Z,10.40
2018-12-25T01:56:42.064Z,11.23
2018-12-25T01:59:15.859Z,11.17
2018-12-25T02:01:49.644Z,10.93
2018-12-25T02:04:24.184Z,10.17
2018-12-25T02:06:57.932Z,11.77
2018-12-25T02:09:31.729Z,10.97
2018-12-25T02:12:05.532Z,11.40
2018-12-25T02:14:39.581Z,11.03
2018-12-25T02:17:13.441Z,12.07
2018-12-25T02:19:47.212Z,10.90
2018-12-25T02:22:21.067Z,11.37
2018-12-25T02:24:54.932Z,11.83
2018-12-25T02:27:29.436Z,11.67
2018-12-25T02:30:03.242Z,11.50
2018-12-25T02:32:36.998Z,10.13
2018-12-25T02:35:10.770Z,11.47
2018-12-25T02:37:45.369Z,13.97
2018-12-25T02:40:19.189Z,11.53
2018-12-25T02:42:54.040Z,11.40
2018-12-25T02:45:28.523Z,12.37
2018-12-25T02:48:02.562Z,12.23
2018-12-25T02:50:37.109Z,14.20
2018-12-25T02:53:10.839Z,11.60
2018-12-25T02:55:44.598Z,13.23
2018-12-25T02:58:19.139Z,12.97
2018-12-25T03:00:53.135Z,12.80
2018-12-25T03:03:27.901Z,11.90
2018-12-25T03:06:02.065Z,12.33
2018-12-25T03:08:35.866Z,11.83
2018-12-25T03:11:09.722Z,13.37
2018-12-25T03:13:43.502Z,14.40
2018-12-25T03:16:17.313Z,12.73
2018-12-25T03:18:51.081Z,12.07
2018-12-25T03:21:24.885Z,13.53
2018-12-25T03:23:58.651Z,13.63
2018-12-25T03:26:32.419Z,12.77
2018-12-25T03:29:06.994Z,16.43
2018-12-25T03:31:40.752Z,14.73
2018-12-25T03:34:15.250Z,12.27
2018-12-25T03:36:49.016Z,13.97
2018-12-25T03:39:23.328Z,13.37
2018-12-25T03:41:57.122Z,13.80
2018-12-25T03:44:30.870Z,12.60
2018-12-25T03:47:04.647Z,12.73
2018-12-25T03:49:38.475Z,12.10
2018-12-25T03:52:12.603Z,13.50
2018-12-25T03:54:46.453Z,13.17
2018-12-25T03:57:20.969Z,12.20
2018-12-25T03:59:55.006Z,15.10
2018-12-25T04:02:28.791Z,12.63
2018-12-25T04:05:03.323Z,12.73
2018-12-25T04:07:37.140Z,12.03
2018-12-25T04:10:10.882Z,11.63
2018-12-25T04:12:44.725Z,11.50
2018-12-25T04:15:18.475Z,13.43
2018-12-25T04:17:52.249Z,12.97
2018-12-25T04:20:26.002Z,12.63
2018-12-25T04:22:59.741Z,13.10
2018-12-25T04:28:18.403Z,15.37
2018-12-25T04:30:52.203Z,11.13
2018-12-25T04:33:25.986Z,13.33
2018-12-25T04:35:59.757Z,13.93
2018-12-25T04:38:33.593Z,12.13
2018-12-25T04:41:07.394Z,12.07
2018-12-25T04:43:41.437Z,12.33
2018-12-25T04:46:15.564Z,13.53
2018-12-25T04:48:49.354Z,12.77
2018-12-25T04:51:23.455Z,11.23
2018-12-25T04:53:57.517Z,12.63
2018-12-25T04:56:32.336Z,12.97
2018-12-25T04:59:06.112Z,10.53
2018-12-25T05:01:40.482Z,13.70
2018-12-25T05:04:14.275Z,12.93
2018-12-25T05:06:48.761Z,13.97
2018-12-25T05:09:22.578Z,10.43
2018-12-25T05:11:56.371Z,11.33
2018-12-25T05:14:30.105Z,12.33
2018-12-25T05:17:04.588Z,12.70
2018-12-25T05:19:38.379Z,10.73
2018-12-25T05:22:12.544Z,14.70
2018-12-25T05:24:47.037Z,11.07
2018-12-25T05:27:20.794Z,10.63
2018-12-25T05:29:54.557Z,11.40
2018-12-25T05:32:28.345Z,10.60
2018-12-25T05:35:02.896Z,10.47
2018-12-25T05:37:36.635Z,13.60
2018-12-25T05:40:10.447Z,10.63
2018-12-25T05:42:44.234Z,12.93
2018-12-25T05:45:18.793Z,10.40
2018-12-25T05:47:52.581Z,13.90
2018-12-25T05:50:26.676Z,11.97
2018-12-25T05:53:01.236Z,12.13
2018-12-25T05:55:35.491Z,11.00
2018-12-25T05:58:09.103Z,11.73
2018-12-25T06:00:43.025Z,12.53
2018-12-25T06:03:17.581Z,13.37
2018-12-25T06:05:51.321Z,10.97
2018-12-25T06:08:25.125Z,12.13
2018-12-25T06:10:59.039Z,11.23
2018-12-25T06:13:32.683Z,12.60
2018-12-25T06:16:07.574Z,11.67
2018-12-25T06:18:41.411Z,11.60
2018-12-25T06:21:15.885Z,12.93
2018-12-25T06:23:49.671Z,12.40
2018-12-25T06:26:23.544Z,11.33
2018-12-25T06:28:58.082Z,12.77
2018-12-25T06:31:32.599Z,11.40
2018-12-25T06:34:07.153Z,10.80
2018-12-25T06:36:41.338Z,12.60
2018-12-25T06:39:15.838Z,10.47
2018-12-25T06:41:49.623Z,12.37
2018-12-25T06:44:23.366Z,11.60
2018-12-25T06:46:57.884Z,11.93
2018-12-25T06:49:31.646Z,13.00
2018-12-25T06:52:05.597Z,11.27
2018-12-25T06:54:41.136Z,13.30
2018-12-25T06:57:15.638Z,12.00
2018-12-25T06:59:49.391Z,14.10
2018-12-25T07:02:23.154Z,12.53
2018-12-25T07:04:56.948Z,12.00
2018-12-25T07:07:31.029Z,13.10
2018-12-25T07:10:05.080Z,12.17
2018-12-25T07:12:38.802Z,13.43
2018-12-25T07:15:12.548Z,13.37
2018-12-25T07:17:46.642Z,13.77
2018-12-25T07:20:21.177Z,14.33
2018-12-25T07:25:36.542Z,9.83
2018-12-25T07:28:10.309Z,12.37
2018-12-25T07:30:44.056Z,12.70
2018-12-25T07:33:17.896Z,13.13
2018-12-25T07:35:51.849Z,11.73
2018-12-25T07:38:25.529Z,12.03
2018-12-25T07:40:59.556Z,11.20
2018-12-25T07:43:33.436Z,13.47
2018-12-25T07:46:07.225Z,12.10
2018-12-25T07:48:41.038Z,12.30
2018-12-25T07:51:20.752Z,10.73
2018-12-25T07:53:50.809Z,11.77
2018-12-25T07:56:24.880Z,11.43
2018-12-25T07:58:58.651Z,12.23
2018-12-25T08:01:32.435Z,12.10
2018-12-25T08:04:06.477Z,13.50
2018-12-25T08:06:40.335Z,11.83
2018-12-25T08:09:14.838Z,13.97
2018-12-25T08:11:48.609Z,13.67
2018-12-25T08:14:22.401Z,12.93
2018-12-25T08:16:56.156Z,13.33
2018-12-25T08:19:30.000Z,18.67
2018-12-25T08:22:03.781Z,11.40
2018-12-25T08:24:38.563Z,18.57
2018-12-25T08:27:12.701Z,14.87
2018-12-25T08:29:46.530Z,13.40
2018-12-25T08:32:21.339Z,12.13
2018-12-25T08:34:56.185Z,13.33
2018-12-25T08:37:30.692Z,12.43
2018-12-25T08:42:44.315Z,17.53
2018-12-25T08:45:18.144Z,10.80
2018-12-25T08:47:51.951Z,14.07
2018-12-25T08:50:26.006Z,15.67
2018-12-25T08:55:41.633Z,12.77
2018-12-25T08:58:15.432Z,13.73
2018-12-25T09:00:49.201Z,13.10
2018-12-25T09:03:22.940Z,13.17
2018-12-25T09:05:56.825Z,12.10
2018-12-25T09:11:11.153Z,16.67
2018-12-25T09:13:44.942Z,15.30
2018-12-25T09:18:58.913Z,13.40
2018-12-25T09:21:32.697Z,15.33
2018-12-25T09:24:06.469Z,12.20
2018-12-25T09:29:22.432Z,11.90
2018-12-25T09:31:56.904Z,16.30
2018-12-25T09:34:31.768Z,13.67
2018-12-25T09:39:47.730Z,11.13
2018-12-25T09:42:22.238Z,13.40
2018-12-25T09:44:56.000Z,12.07
2018-12-25T09:50:11.819Z,11.83
2018-12-25T09:52:45.638Z,13.83
2018-12-25T09:58:00.919Z,12.57
2018-12-25T10:00:34.703Z,13.23
2018-12-25T10:03:08.499Z,10.83
2018-12-25T10:05:42.561Z,10.80
2018-12-25T10:08:17.809Z,9.13
2018-12-25T10:13:33.576Z,12.53
2018-12-25T10:18:53.265Z,11.50
2018-12-25T10:21:27.043Z,11.47
2018-12-25T10:26:42.993Z,10.70
2018-12-25T10:29:17.175Z,10.55
2018-12-25T10:31:51.680Z,11.73
2018-12-25T10:34:26.206Z,10.97
2018-12-25T10:39:47.221Z,15.13
2018-12-25T10:42:21.015Z,12.13
2018-12-25T10:47:36.935Z,12.47
2018-12-25T10:50:11.356Z,12.03
2018-12-25T10:52:45.306Z,13.27
2018-12-25T10:55:19.389Z,12.75
2018-12-25T10:57:54.295Z,10.50
2018-12-25T11:00:32.524Z,10.60
2018-12-25T11:03:06.237Z,10.83
2018-12-25T11:05:40.768Z,10.85
2018-12-25T11:08:15.698Z,12.13
2018-12-25T11:10:50.175Z,10.93
2018-12-25T11:13:24.243Z,11.95
2018-12-25T11:15:58.762Z,12.47
2018-12-25T11:26:38.274Z,9.60
2018-12-25T11:29:12.081Z,10.15
2018-12-25T11:31:45.877Z,9.37
2018-12-25T11:36:59.844Z,8.58
2018-12-25T11:39:33.964Z,8.90
2018-12-25T11:47:30.870Z,9.40
2018-12-25T11:50:04.952Z,11.50
2018-12-25T11:52:38.805Z,9.65
2018-12-25T11:57:58.796Z,10.07
2018-12-25T12:00:32.609Z,11.35
2018-12-25T12:03:06.408Z,10.53
2018-12-25T12:08:20.023Z,11.10
2018-12-25T12:10:54.543Z,9.40
2018-12-25T12:13:28.306Z,9.90
2018-12-25T12:18:41.935Z,10.20
2018-12-25T12:21:15.732Z,11.37
2018-12-25T12:23:49.569Z,9.13
2018-12-25T12:29:05.499Z,11.23
2018-12-25T12:31:39.332Z,11.70
2018-12-25T12:36:54.877Z,10.40
2018-12-25T12:39:28.669Z,7.55
2018-12-25T12:42:02.714Z,10.18
2018-12-25T12:47:22.369Z,11.63
2018-12-25T12:49:56.164Z,8.70
2018-12-25T12:52:29.962Z,8.37
2018-12-25T12:57:43.312Z,9.28
2018-12-25T13:00:17.431Z,12.47
2018-12-25T13:02:51.279Z,9.53
2018-12-25T13:08:06.532Z,9.07
2018-12-25T13:10:40.443Z,9.63
2018-12-25T13:13:14.525Z,10.30
2018-12-25T13:18:28.861Z,10.30
2018-12-25T13:21:02.969Z,8.23
2018-12-25T13:23:36.739Z,8.93
2018-12-25T13:26:10.545Z,9.80
2018-12-25T13:28:44.369Z,10.33
2018-12-25T13:31:18.189Z,10.60
2018-12-25T13:33:51.918Z,9.97
2018-12-25T13:36:26.037Z,8.88
2018-12-25T13:41:39.375Z,10.37
2018-12-25T13:44:13.953Z,14.43
2018-12-25T13:46:51.804Z,11.93
2018-12-25T13:49:22.717Z,10.10
2018-12-25T13:51:56.576Z,11.60
2018-12-25T13:57:12.903Z,12.80
2018-12-25T13:59:47.093Z,12.03
2018-12-25T14:07:45.106Z,9.87
2018-12-25T14:10:18.921Z,9.90
2018-12-25T14:12:53.443Z,12.67
2018-12-25T14:18:08.222Z,12.27
2018-12-25T14:20:42.761Z,13.15
2018-12-25T14:23:16.838Z,13.70
2018-12-25T14:25:50.580Z,11.50
2018-12-25T14:28:24.447Z,17.80
2018-12-25T14:30:58.250Z,12.40
2018-12-25T14:33:32.001Z,13.83
2018-12-25T14:36:05.779Z,11.83
2018-12-25T14:41:23.522Z,12.70
2018-12-25T14:44:04.979Z,12.37
2018-12-25T14:46:31.190Z,11.30
2018-12-25T14:51:46.312Z,13.30
2018-12-25T14:54:20.445Z,11.80
2018-12-25T14:56:54.224Z,13.40
2018-12-25T14:59:27.993Z,15.53
2018-12-25T15:07:24.805Z,19.90
2018-12-25T15:09:58.604Z,15.33
2018-12-25T15:12:32.664Z,16.13
2018-12-25T15:17:47.064Z,15.27
2018-12-25T15:20:21.292Z,15.20
2018-12-25T15:22:55.093Z,14.63
2018-12-25T15:28:10.564Z,13.90
2018-12-25T15:30:45.433Z,16.07
2018-12-25T15:33:19.270Z,13.23
2018-12-25T15:38:34.481Z,17.30
2018-12-25T15:41:08.239Z,15.33
2018-12-25T15:43:42.298Z,14.30
2018-12-25T15:48:57.544Z,14.33
2018-12-25T15:51:31.648Z,16.37
2018-12-25T15:54:05.417Z,17.27
2018-12-25T15:56:40.111Z,15.53
2018-12-25T16:01:55.723Z,17.03
2018-12-25T16:04:29.900Z,17.20
2018-12-25T16:07:03.949Z,19.07
2018-12-25T16:09:37.702Z,18.60
2018-12-25T16:12:11.542Z,17.77
2018-12-25T16:14:45.878Z,18.27
2018-12-25T16:17:19.618Z,17.10
2018-12-25T16:19:54.131Z,16.77
2018-12-25T16:25:08.496Z,16.40
2018-12-25T16:27:42.301Z,20.83
2018-12-25T16:30:16.841Z,17.50
2018-12-25T16:32:51.370Z,17.40
2018-12-25T16:35:25.229Z,19.27
2018-12-25T16:37:59.326Z,20.60
2018-12-25T16:40:33.074Z,19.80
2018-12-25T16:43:06.852Z,18.80
2018-12-25T16:45:40.667Z,17.33
2018-12-25T16:48:14.451Z,16.73
2018-12-25T16:50:48.196Z,21.00
2018-12-25T16:53:22.282Z,17.07
2018-12-25T16:55:56.109Z,17.80
2018-12-25T16:58:29.901Z,19.10
2018-12-25T17:01:03.977Z,18.73
2018-12-25T17:03:37.717Z,16.30
2018-12-25T17:06:11.503Z,21.87
2018-12-25T17:08:45.750Z,18.43
2018-12-25T17:11:19.502Z,21.57
2018-12-25T17:13:53.599Z,20.37
2018-12-25T17:16:28.101Z,19.30
2018-12-25T17:27:06.029Z,22.10
2018-12-25T17:29:39.828Z,20.87
2018-12-25T17:32:13.625Z,22.23
2018-12-25T17:37:29.495Z,20.77
2018-12-25T17:40:01.475Z,20.30
2018-12-25T17:45:17.005Z,21.07
2018-12-25T17:47:50.804Z,23.60
2018-12-25T17:50:24.608Z,21.77
2018-12-25T17:52:58.417Z,20.63
2018-12-25T17:55:32.265Z,21.67
2018-12-25T18:00:48.274Z,22.23
2018-12-25T18:03:23.534Z,23.23
2018-12-25T18:05:58.068Z,22.07
2018-12-25T18:08:31.830Z,20.37
2018-12-25T18:11:06.493Z,20.53
2018-12-25T18:18:59.639Z,18.87
2018-12-25T18:21:33.481Z,20.10
2018-12-25T18:26:49.700Z,21.03
2018-12-25T18:29:23.502Z,19.87
2018-12-25T18:31:57.427Z,19.43
2018-12-25T18:37:17.161Z,18.07
2018-12-25T18:40:00.159Z,18.87
2018-12-25T18:42:34.091Z,20.77
2018-12-25T18:47:50.423Z,19.80
2018-12-25T18:50:24.205Z,21.53
2018-12-25T18:52:57.983Z,22.10
2018-12-25T18:55:31.769Z,19.90
2018-12-25T19:00:47.820Z,20.00
2018-12-25T19:03:21.616Z,18.73
2018-12-25T19:05:55.716Z,16.63
2018-12-25T19:08:29.461Z,17.37
2018-12-25T19:11:03.293Z,18.80
2018-12-25T19:13:37.881Z,17.73
2018-12-25T19:18:51.436Z,17.17
2018-12-25T19:21:25.550Z,20.50
2018-12-25T19:24:02.311Z,21.27
2018-12-25T19:29:17.581Z,20.33
2018-12-25T19:31:52.128Z,21.17
2018-12-25T19:34:25.992Z,20.73
2018-12-25T19:39:41.962Z,20.93
2018-12-25T19:42:16.080Z,21.73
2018-12-25T19:47:30.901Z,23.93
2018-12-25T19:50:04.673Z,24.03
2018-12-25T19:52:38.456Z,24.43
2018-12-25T19:55:12.210Z,24.47
2018-12-25T19:57:46.338Z,25.63
2018-12-25T20:00:21.142Z,27.13
2018-12-25T20:03:22.404Z,31.47
2018-12-25T20:07:06.466Z,28.60
2018-12-25T20:17:27.131Z,26.20
2018-12-25T20:20:54.813Z,25.00
2018-12-25T20:27:52.083Z,26.80
2018-12-25T20:31:19.595Z,24.60
2018-12-25T20:49:38.030Z,27.07
2018-12-25T20:53:11.530Z,25.10
2018-12-25T21:00:02.551Z,23.73
2018-12-25T21:03:49.664Z,27.00
2018-12-25T21:11:32.593Z,26.90
2018-12-25T21:18:44.010Z,29.73
2018-12-25T21:22:30.536Z,28.60
2018-12-25T21:28:40.217Z,25.67
2018-12-25T21:31:14.738Z,29.83
2018-12-25T21:33:49.236Z,28.67
2018-12-25T21:39:05.502Z,31.90
2018-12-25T21:41:40.332Z,30.23
2018-12-25T21:46:55.565Z,32.87
2018-12-25T21:49:30.125Z,31.93
2018-12-25T21:52:03.937Z,34.20
2018-12-25T21:57:19.902Z,33.17
2018-12-25T21:59:53.744Z,31.70
2018-12-25T22:02:28.492Z,35.30
2018-12-25T22:05:02.299Z,31.77
2018-12-25T22:10:17.939Z,33.37
2018-12-25T22:12:52.013Z,35.30
2018-12-25T22:18:09.408Z,34.97
2018-12-25T22:20:42.121Z,37.67
2018-12-25T22:23:15.929Z,39.53
2018-12-25T22:25:50.431Z,36.27
2018-12-25T22:28:24.265Z,44.10
2018-12-25T22:30:58.833Z,42.97
2018-12-25T22:33:32.565Z,43.90
2018-12-25T22:36:06.607Z,42.43
2018-12-25T22:38:41.137Z,42.63
2018-12-25T22:41:15.264Z,46.43
2018-12-25T22:43:49.053Z,45.07
2018-12-25T22:46:23.561Z,46.60
2018-12-25T22:48:57.708Z,45.30
2018-12-25T22:51:31.510Z,47.80
2018-12-25T22:54:05.569Z,51.93
2018-12-25T22:56:39.498Z,47.93
2018-12-25T22:59:14.056Z,55.07
2018-12-25T23:01:47.818Z,48.03
2018-12-25T23:04:21.577Z,46.60
2018-12-25T23:06:55.592Z,50.63
2018-12-25T23:09:29.461Z,49.80
2018-12-25T23:12:03.214Z,50.77
2018-12-25T23:14:37.255Z,49.73
2018-12-25T23:19:50.562Z,49.03
2018-12-25T23:22:24.361Z,50.40
2018-12-25T23:24:58.197Z,54.83
2018-12-25T23:27:31.962Z,51.97
2018-12-25T23:30:06.174Z,55.10
2018-12-25T23:32:39.963Z,48.17
2018-12-25T23:35:16.162Z,52.63
2018-12-25T23:37:49.946Z,53.87
2018-12-25T23:43:06.662Z,55.83
2018-12-25T23:45:41.180Z,57.50
2018-12-25T23:58:52.598Z,56.53
